Time;durP1;ratioP1;P1;durP2;ratioP2;P2;SDS_P1;SDS_P2;PMS_P1;PMS_P2;Temp;Humidity;BMP_temperature;BMP_pressure;BME280_temperature;BME280_humidity;BME280_pressure;Samples;Min_cycle;Max_cycle;Signal;HPM_P1;HPM_P2
2023/03/03 00:00:12;;;;;;;34.57;30.20;;;;;19.70;101184.00;;;;2062890;28;20214;-82
2023/03/03 00:01:13;;;;;;;35.30;29.60;;;;;19.70;101184.00;;;;2062097;28;20215;-82
2023/03/03 00:02:13;;;;;;;33.10;27.90;;;;;19.70;101186.00;;;;2062376;28;20305;-82
2023/03/03 00:03:16;;;;;;;35.43;29.10;;;;;19.70;101187.00;;;;2062771;28;20238;-82
2023/03/03 00:04:16;;;;;;;34.05;30.30;;;;;19.70;101183.00;;;;2062257;28;20855;-82
2023/03/03 00:05:17;;;;;;;37.90;29.60;;;;;19.70;101178.00;;;;2062104;28;20230;-82
2023/03/03 00:06:17;;;;;;;33.80;28.47;;;;;19.70;101158.00;;;;2062835;28;20234;-82
2023/03/03 00:07:21;;;;;;;32.73;29.13;;;;;19.70;101146.00;;;;2062742;28;20219;-82
2023/03/03 00:08:22;;;;;;;34.17;28.95;;;;;19.60;101182.00;;;;2062897;28;20211;-82
2023/03/03 00:09:22;;;;;;;34.57;28.27;;;;;19.60;101180.00;;;;2062048;28;20239;-82
2023/03/03 00:10:23;;;;;;;34.90;29.00;;;;;19.70;101180.00;;;;2062863;28;20230;-82
2023/03/03 00:11:23;;;;;;;34.70;28.80;;;;;19.60;101180.00;;;;2063034;28;20237;-82
2023/03/03 00:12:25;;;;;;;33.93;27.77;;;;;19.70;101182.00;;;;2062771;28;20245;-82
2023/03/03 00:13:26;;;;;;;33.35;28.40;;;;;19.60;101190.00;;;;2063033;28;20218;-82
2023/03/03 00:14:28;;;;;;;35.73;30.00;;;;;19.70;101182.00;;;;2062190;28;20221;-82
2023/03/03 00:15:28;;;;;;;36.17;27.42;;;;;19.60;101194.00;;;;2062259;28;20718;-82
2023/03/03 00:16:39;;;;;;;33.03;28.37;;;;;19.60;101190.00;;;;2061203;28;20515;-75
2023/03/03 00:17:39;;;;;;;34.58;28.92;;;;;19.60;101190.00;;;;2062141;28;20218;-82
2023/03/03 00:18:44;;;;;;;36.00;28.90;;;;;19.60;101180.00;;;;2061926;28;20281;-82
2023/03/03 00:19:46;;;;;;;36.50;29.00;;;;;19.60;101190.00;;;;2054700;28;20744;-82
2023/03/03 00:20:54;;;;;;;35.05;29.55;;;;;19.60;101195.00;;;;2062122;28;20230;-82
2023/03/03 00:21:55;;;;;;;35.88;28.13;;;;;19.60;101185.00;;;;2062943;28;20261;-82
2023/03/03 00:22:57;;;;;;;34.03;27.83;;;;;19.60;101196.00;;;;2062042;28;20265;-82
2023/03/03 00:24:20;;;;;;;31.92;26.88;;;;;19.60;101195.00;;;;2062231;28;20214;-82
2023/03/03 00:25:33;;;;;;;33.53;28.75;;;;;19.60;101196.00;;;;2053597;28;20227;-82
2023/03/03 00:26:37;;;;;;;33.58;28.83;;;;;19.60;101186.00;;;;2059113;28;20860;-83
2023/03/03 00:27:37;;;;;;;35.60;28.25;;;;;19.60;101191.00;;;;2062417;28;20223;-80
2023/03/03 00:28:46;;;;;;;34.73;27.87;;;;;19.60;101191.00;;;;2062543;28;20211;-80
2023/03/03 00:29:47;;;;;;;36.08;28.65;;;;;19.60;101177.00;;;;2061875;28;20278;-81
2023/03/03 00:30:47;;;;;;;34.08;27.75;;;;;19.60;101188.00;;;;2062105;28;20219;-80
2023/03/03 00:31:48;;;;;;;33.90;28.47;;;;;19.60;101187.00;;;;2054185;28;20688;-81
2023/03/03 00:32:49;;;;;;;34.27;28.17;;;;;19.60;101191.00;;;;2062100;28;20698;-81
2023/03/03 00:33:53;;;;;;;32.47;27.38;;;;;19.60;101198.00;;;;2062892;28;20211;-80
2023/03/03 00:34:55;;;;;;;33.80;28.45;;;;;19.60;101192.00;;;;2062722;28;20220;-81
2023/03/03 00:35:55;;;;;;;31.77;26.67;;;;;19.60;101195.00;;;;2062022;28;20228;-81
2023/03/03 00:36:57;;;;;;;35.70;29.07;;;;;19.60;101010.00;;;;2052986;28;20211;-81
2023/03/03 00:37:58;;;;;;;32.97;28.08;;;;;19.50;101199.00;;;;2061952;28;21101;-82
2023/03/03 00:39:17;;;;;;;31.30;26.83;;;;;19.50;101205.00;;;;2062771;28;20243;-81
2023/03/03 00:40:30;;;;;;;32.72;27.65;;;;;19.50;101192.00;;;;2062471;28;20211;-79
2023/03/03 00:41:30;;;;;;;35.10;28.35;;;;;19.50;101200.00;;;;2062238;28;20221;-72
2023/03/03 00:42:31;;;;;;;32.80;26.63;;;;;19.60;101193.00;;;;2062221;28;20254;-76
2023/03/03 00:43:34;;;;;;;38.63;27.30;;;;;19.60;101204.00;;;;2061829;28;20244;-76
2023/03/03 00:45:31;;;;;;;30.85;25.73;;;;;19.60;101196.00;;;;2061005;28;20780;-77
2023/03/03 00:46:32;;;;;;;32.33;26.35;;;;;19.60;101194.00;;;;2060707;28;20695;-78
2023/03/03 00:47:36;;;;;;;30.33;25.30;;;;;19.60;101197.00;;;;2045571;29;20221;-78
2023/03/03 00:48:37;;;;;;;32.97;26.30;;;;;19.60;101192.00;;;;2046409;28;20301;-78
2023/03/03 00:49:37;;;;;;;33.93;27.10;;;;;19.60;101217.00;;;;2062824;28;20634;-78
2023/03/03 00:50:38;;;;;;;33.07;27.97;;;;;19.60;101177.00;;;;2046934;29;20706;-77
2023/03/03 00:51:41;;;;;;;34.67;27.02;;;;;19.50;101191.00;;;;2043364;28;20740;-76
2023/03/03 00:52:45;;;;;;;32.17;26.73;;;;;19.40;101191.00;;;;2063736;28;20250;-78
2023/03/03 00:53:45;;;;;;;33.40;27.20;;;;;19.50;101204.00;;;;2071602;28;20207;-77
2023/03/03 00:54:45;;;;;;;34.53;26.23;;;;;19.50;101201.00;;;;2072321;28;20773;-78
2023/03/03 00:55:47;;;;;;;33.97;26.90;;;;;19.50;101204.00;;;;2072100;28;20768;-78
2023/03/03 00:56:47;;;;;;;29.73;24.85;;;;;19.50;101211.00;;;;2072256;28;20939;-78
2023/03/03 00:57:47;;;;;;;30.70;25.97;;;;;19.50;101206.00;;;;2072262;28;20246;-78
2023/03/03 00:58:48;;;;;;;33.30;25.57;;;;;19.50;101207.00;;;;2071822;28;20260;-77
2023/03/03 00:59:49;;;;;;;34.20;27.80;;;;;19.40;101203.00;;;;2072066;28;20357;-77
2023/03/03 01:00:53;;;;;;;32.13;25.80;;;;;19.40;101208.00;;;;2072154;28;20243;-78
2023/03/03 01:01:53;;;;;;;32.55;27.25;;;;;19.40;101210.00;;;;2070808;28;20474;-78
2023/03/03 01:02:53;;;;;;;31.17;27.03;;;;;19.40;101216.00;;;;2071803;28;20263;-78
2023/03/03 01:03:54;;;;;;;31.47;27.40;;;;;19.40;101212.00;;;;2071360;28;20222;-77
2023/03/03 01:04:55;;;;;;;33.40;26.53;;;;;19.40;101211.00;;;;2071486;28;20724;-77
2023/03/03 01:05:55;;;;;;;29.73;25.08;;;;;19.40;101198.00;;;;2072167;28;20222;-78
2023/03/03 01:06:55;;;;;;;29.63;26.23;;;;;19.50;101088.00;;;;2069948;28;20762;-78
2023/03/03 01:07:56;;;;;;;32.00;26.20;;;;;19.40;101217.00;;;;2072102;28;20664;-78
2023/03/03 01:08:56;;;;;;;33.47;27.87;;;;;19.40;101209.00;;;;2072080;28;20259;-77
2023/03/03 01:09:56;;;;;;;34.43;26.70;;;;;19.40;101214.00;;;;2071767;28;20276;-78
2023/03/03 01:10:59;;;;;;;32.50;26.93;;;;;19.40;101212.00;;;;2072244;28;20222;-78
2023/03/03 01:11:59;;;;;;;30.40;26.40;;;;;19.40;101210.00;;;;2070442;28;20646;-77
2023/03/03 01:13:00;;;;;;;31.77;27.03;;;;;19.40;101216.00;;;;2071459;28;20215;-78
2023/03/03 01:14:00;;;;;;;30.80;26.07;;;;;19.40;101211.00;;;;2071452;28;20213;-78
2023/03/03 01:15:01;;;;;;;30.73;26.00;;;;;19.40;101217.00;;;;2071951;28;20737;-78
2023/03/03 01:16:01;;;;;;;29.97;25.00;;;;;19.40;101213.00;;;;2072144;28;20225;-78
2023/03/03 01:17:02;;;;;;;31.90;25.80;;;;;19.40;101214.00;;;;2071449;28;20230;-78
2023/03/03 01:18:02;;;;;;;30.40;24.83;;;;;19.40;101209.00;;;;2071143;28;20911;-78
2023/03/03 01:19:02;;;;;;;29.97;25.10;;;;;19.40;101218.00;;;;2072112;28;20226;-78
2023/03/03 01:20:03;;;;;;;32.10;26.33;;;;;19.40;101210.00;;;;2071863;28;20893;-77
2023/03/03 01:21:04;;;;;;;31.60;26.50;;;;;19.40;101206.00;;;;2071784;28;20225;-78
2023/03/03 01:22:04;;;;;;;31.57;25.27;;;;;19.30;101215.00;;;;2071968;28;20639;-78
2023/03/03 01:23:05;;;;;;;30.20;24.53;;;;;19.30;101213.00;;;;2071650;28;20461;-78
2023/03/03 01:24:05;;;;;;;31.70;25.43;;;;;19.40;101193.00;;;;2071327;28;20218;-78
2023/03/03 01:25:06;;;;;;;31.10;25.37;;;;;19.40;101217.00;;;;2071298;28;20218;-77
2023/03/03 01:26:06;;;;;;;29.03;24.73;;;;;19.30;101216.00;;;;2071241;28;20229;-78
2023/03/03 01:27:06;;;;;;;28.43;25.30;;;;;19.30;101223.00;;;;2071700;28;20228;-77
2023/03/03 01:28:07;;;;;;;29.20;24.17;;;;;19.30;101216.00;;;;2071569;28;20229;-77
2023/03/03 01:29:07;;;;;;;31.97;26.63;;;;;19.30;101219.00;;;;2071310;28;20214;-77
2023/03/03 01:30:08;;;;;;;28.90;24.33;;;;;19.30;101208.00;;;;2063010;28;20231;-78
2023/03/03 01:31:08;;;;;;;28.63;23.70;;;;;19.30;101209.00;;;;2071109;28;20693;-78
2023/03/03 01:32:09;;;;;;;29.67;24.90;;;;;19.30;101206.00;;;;2071965;28;20226;-78
2023/03/03 01:33:09;;;;;;;30.83;25.87;;;;;18.90;101211.00;;;;2071900;28;20301;-77
2023/03/03 01:34:09;;;;;;;27.73;23.50;;;;;19.30;101206.00;;;;2071981;28;20312;-77
2023/03/03 01:35:10;;;;;;;27.00;23.43;;;;;18.90;101209.00;;;;2071923;28;20222;-77
2023/03/03 01:36:10;;;;;;;29.23;24.87;;;;;19.30;101213.00;;;;2071751;28;20272;-77
2023/03/03 01:37:10;;;;;;;27.60;24.00;;;;;19.30;101222.00;;;;2071960;28;20243;-76
2023/03/03 01:38:10;;;;;;;28.43;23.90;;;;;19.30;101218.00;;;;2071687;28;20210;-77
2023/03/03 01:39:11;;;;;;;26.03;23.13;;;;;19.30;101212.00;;;;2071821;28;20530;-77
2023/03/03 01:40:14;;;;;;;28.20;24.60;;;;;19.20;101220.00;;;;2071057;28;20566;-74
2023/03/03 01:41:14;;;;;;;28.42;23.10;;;;;19.30;101209.00;;;;2071258;28;20218;-76
2023/03/03 01:42:15;;;;;;;28.87;24.53;;;;;19.30;101204.00;;;;2070684;28;20626;-77
2023/03/03 01:43:15;;;;;;;31.33;25.20;;;;;19.30;101209.00;;;;2071505;28;20218;-77
2023/03/03 01:44:15;;;;;;;29.03;23.67;;;;;19.30;101192.00;;;;2066019;28;20800;-77
2023/03/03 01:45:22;;;;;;;27.27;23.43;;;;;19.20;101204.00;;;;2063450;28;20675;-76
2023/03/03 01:46:32;;;;;;;24.83;21.40;;;;;19.30;101210.00;;;;2061914;28;20721;-77
2023/03/03 01:47:32;;;;;;;28.65;24.60;;;;;19.20;101213.00;;;;2062536;28;20223;-77
2023/03/03 01:48:41;;;;;;;28.50;23.87;;;;;19.20;101207.00;;;;2063308;28;20226;-78
2023/03/03 01:49:55;;;;;;;27.42;23.23;;;;;19.20;101202.00;;;;2062170;28;20337;-77
2023/03/03 01:50:58;;;;;;;29.88;24.85;;;;;19.20;101213.00;;;;2062478;28;20297;-77
2023/03/03 01:52:04;;;;;;;28.40;24.92;;;;;19.20;101211.00;;;;2061093;28;20309;-76
2023/03/03 01:53:06;;;;;;;28.45;23.92;;;;;19.20;101209.00;;;;2048314;28;20587;-77
2023/03/03 01:54:11;;;;;;;27.33;22.60;;;;;19.20;101207.00;;;;2046973;28;20227;-77
2023/03/03 01:55:35;;;;;;;28.75;23.17;;;;;19.20;101206.00;;;;2047877;28;20271;-77
2023/03/03 01:56:36;;;;;;;27.48;23.13;;;;;19.20;101201.00;;;;2062888;28;20302;-76
2023/03/03 01:57:39;;;;;;;27.60;23.23;;;;;19.20;101206.00;;;;2062614;28;20578;-76
2023/03/03 01:58:49;;;;;;;28.38;23.63;;;;;19.20;101203.00;;;;2062521;28;20210;-76
2023/03/03 01:59:49;;;;;;;29.13;23.27;;;;;19.20;101208.00;;;;2062104;28;20237;-77
2023/03/03 02:00:53;;;;;;;27.77;23.23;;;;;19.20;101198.00;;;;2061934;28;20283;-76
2023/03/03 02:01:53;;;;;;;30.35;23.92;;;;;19.20;101214.00;;;;2063043;28;20221;-76
2023/03/03 02:02:54;;;;;;;25.40;22.13;;;;;19.20;101216.00;;;;2063177;28;20219;-77
2023/03/03 02:03:54;;;;;;;30.30;24.90;;;;;19.10;101192.00;;;;2064035;28;20225;-76
2023/03/03 02:04:54;;;;;;;28.23;24.53;;;;;19.10;101207.00;;;;2063133;28;20241;-77
2023/03/03 02:05:56;;;;;;;27.00;22.90;;;;;19.20;101208.00;;;;2062718;28;20215;-77
2023/03/03 02:07:03;;;;;;;26.50;22.60;;;;;19.20;101210.00;;;;2063005;28;20280;-76
2023/03/03 02:08:03;;;;;;;26.88;23.00;;;;;19.20;101207.00;;;;2063091;28;20218;-76
2023/03/03 02:09:21;;;;;;;26.73;23.47;;;;;19.20;101206.00;;;;2063120;28;20590;-77
2023/03/03 02:10:21;;;;;;;26.52;22.55;;;;;19.10;101202.00;;;;2062628;28;20230;-76
2023/03/03 02:11:21;;;;;;;26.57;23.03;;;;;19.10;101201.00;;;;2062936;28;20250;-77
2023/03/03 02:12:28;;;;;;;28.00;23.57;;;;;19.10;101179.00;;;;2064118;28;20265;-77
2023/03/03 02:13:29;;;;;;;24.63;21.92;;;;;19.10;101186.00;;;;2064212;28;20224;-77
2023/03/03 02:14:29;;;;;;;29.00;24.40;;;;;19.10;101187.00;;;;2066078;28;20670;-76
2023/03/03 02:15:31;;;;;;;26.97;23.60;;;;;19.10;101200.00;;;;2063938;28;20678;-77
2023/03/03 02:16:32;;;;;;;28.10;22.42;;;;;19.10;101192.00;;;;2064547;28;20686;-77
2023/03/03 02:17:33;;;;;;;28.30;24.17;;;;;19.10;101199.00;;;;2062760;28;20222;-77
2023/03/03 02:18:33;;;;;;;27.30;24.20;;;;;19.10;101183.00;;;;2062721;28;20446;-76
2023/03/03 02:19:40;;;;;;;29.80;23.90;;;;;19.10;101195.00;;;;2062932;28;20282;-78
2023/03/03 02:20:40;;;;;;;28.40;24.25;;;;;19.10;101183.00;;;;2060661;28;20261;-76
2023/03/03 02:21:40;;;;;;;28.13;23.23;;;;;19.10;101183.00;;;;2054524;28;20224;-76
2023/03/03 02:22:45;;;;;;;27.17;22.73;;;;;19.10;101188.00;;;;2046471;28;20212;-76
2023/03/03 02:24:08;;;;;;;25.85;22.02;;;;;19.10;101171.00;;;;2055425;28;20303;-75
2023/03/03 02:25:10;;;;;;;27.30;22.42;;;;;19.10;101155.00;;;;2057566;28;20218;-75
2023/03/03 02:26:29;;;;;;;26.92;22.92;;;;;19.10;101157.00;;;;2049289;28;20228;-74
2023/03/03 02:27:30;;;;;;;27.25;22.85;;;;;19.10;101155.00;;;;2048880;28;20226;-76
2023/03/03 02:28:31;;;;;;;27.77;22.97;;;;;19.10;101180.00;;;;2040159;28;20219;-76
2023/03/03 02:29:32;;;;;;;26.40;23.50;;;;;19.10;101177.00;;;;2054865;28;20497;-76
2023/03/03 02:30:38;;;;;;;30.10;23.77;;;;;19.10;101176.00;;;;2063570;28;20223;-76
2023/03/03 02:31:38;;;;;;;25.92;22.17;;;;;19.10;101183.00;;;;2062862;28;20225;-76
2023/03/03 02:32:39;;;;;;;26.27;21.10;;;;;19.10;101181.00;;;;2062890;28;20218;-76
2023/03/03 02:33:40;;;;;;;26.27;22.20;;;;;19.10;101188.00;;;;2063574;28;20218;-76
2023/03/03 02:34:48;;;;;;;27.80;21.95;;;;;19.10;101192.00;;;;2063093;28;20250;-76
2023/03/03 02:35:49;;;;;;;26.38;22.00;;;;;19.00;101194.00;;;;2063006;28;20243;-76
2023/03/03 02:36:49;;;;;;;26.13;22.60;;;;;19.10;101187.00;;;;2063451;28;20227;-76
2023/03/03 02:37:50;;;;;;;27.53;22.30;;;;;19.10;101192.00;;;;2063356;28;20595;-76
2023/03/03 02:39:18;;;;;;;26.27;21.98;;;;;19.00;101205.00;;;;2063450;28;20598;-76
2023/03/03 02:40:18;;;;;;;25.67;21.60;;;;;19.10;101203.00;;;;2063270;28;20298;-76
2023/03/03 02:41:52;;;;;;;25.07;21.20;;;;;19.10;101202.00;;;;2062547;28;20274;-77
2023/03/03 02:42:53;;;;;;;25.40;19.58;;;;;19.10;101199.00;;;;2062399;28;20224;-76
2023/03/03 02:44:04;;;;;;;25.30;20.47;;;;;19.00;101214.00;;;;2054302;28;20730;-76
2023/03/03 02:45:05;;;;;;;23.67;20.50;;;;;19.00;101213.00;;;;2057447;28;20219;-76
2023/03/03 02:46:05;;;;;;;24.00;20.35;;;;;19.10;101206.00;;;;2070922;28;20209;-77
2023/03/03 02:47:06;;;;;;;22.93;19.50;;;;;19.00;101206.00;;;;2070899;28;20637;-77
2023/03/03 02:48:06;;;;;;;25.30;21.10;;;;;19.00;101210.00;;;;2070427;28;20685;-77
2023/03/03 02:49:07;;;;;;;24.00;21.03;;;;;19.00;101211.00;;;;2070871;28;20232;-77
2023/03/03 02:50:08;;;;;;;25.70;21.67;;;;;19.00;101208.00;;;;2071282;28;20963;-76
2023/03/03 02:51:08;;;;;;;22.63;18.80;;;;;19.00;101209.00;;;;2071553;28;20221;-77
2023/03/03 02:52:09;;;;;;;23.00;19.20;;;;;19.00;101209.00;;;;2071502;28;20465;-77
2023/03/03 02:53:09;;;;;;;25.30;20.80;;;;;19.00;101211.00;;;;2070694;28;20214;-77
2023/03/03 02:54:10;;;;;;;23.40;20.90;;;;;19.00;101213.00;;;;2070613;28;20473;-76
2023/03/03 02:55:11;;;;;;;22.20;19.20;;;;;19.00;101211.00;;;;2071239;28;20305;-76
2023/03/03 02:56:11;;;;;;;25.50;20.03;;;;;19.00;101206.00;;;;2071331;28;20210;-77
2023/03/03 02:57:12;;;;;;;25.73;20.63;;;;;19.00;101210.00;;;;2071090;28;20308;-77
2023/03/03 02:58:12;;;;;;;22.40;19.27;;;;;19.10;101205.00;;;;2069905;28;20248;-76
2023/03/03 02:59:13;;;;;;;21.90;19.27;;;;;19.00;101201.00;;;;2071174;28;20925;-76
2023/03/03 03:00:13;;;;;;;20.77;18.57;;;;;19.00;101205.00;;;;2070832;28;22560;-76
2023/03/03 03:01:14;;;;;;;23.10;19.80;;;;;19.00;101203.00;;;;2070565;28;20241;-76
2023/03/03 03:02:14;;;;;;;23.50;20.03;;;;;19.00;101198.00;;;;2071006;28;20245;-76
2023/03/03 03:03:14;;;;;;;24.93;21.37;;;;;19.00;101201.00;;;;2070000;28;20232;-77
2023/03/03 03:04:17;;;;;;;24.93;20.50;;;;;19.00;101205.00;;;;2070188;28;20210;-76
2023/03/03 03:05:17;;;;;;;22.50;18.33;;;;;19.00;101206.00;;;;2071006;28;20740;-77
2023/03/03 03:06:17;;;;;;;24.80;19.53;;;;;19.00;101200.00;;;;2070535;28;20252;-77
2023/03/03 03:07:18;;;;;;;23.30;18.60;;;;;19.00;101207.00;;;;2070009;28;20739;-78
2023/03/03 03:08:18;;;;;;;22.43;18.63;;;;;19.00;101199.00;;;;2069522;28;20225;-77
2023/03/03 03:09:19;;;;;;;21.37;18.67;;;;;18.60;101201.00;;;;2070675;28;20240;-77
2023/03/03 03:10:19;;;;;;;22.85;18.17;;;;;18.90;101197.00;;;;2070194;28;20241;-76
2023/03/03 03:11:20;;;;;;;23.93;19.60;;;;;18.90;101199.00;;;;2070378;28;20281;-77
2023/03/03 03:12:20;;;;;;;23.53;18.37;;;;;19.00;101200.00;;;;2068749;28;20218;-77
2023/03/03 03:13:21;;;;;;;23.10;18.90;;;;;19.00;101202.00;;;;2070139;28;20231;-78
2023/03/03 03:14:22;;;;;;;25.70;19.50;;;;;18.90;101205.00;;;;2070147;28;20268;-76
2023/03/03 03:15:23;;;;;;;21.92;18.58;;;;;18.90;101207.00;;;;2070783;28;20588;-76
2023/03/03 03:16:23;;;;;;;21.63;18.50;;;;;19.00;101207.00;;;;2070825;28;20217;-76
2023/03/03 03:17:23;;;;;;;22.37;19.70;;;;;19.00;101212.00;;;;2071281;28;20217;-78
2023/03/03 03:18:24;;;;;;;20.20;16.93;;;;;18.90;101204.00;;;;2070947;28;20670;-77
2023/03/03 03:19:24;;;;;;;20.57;17.60;;;;;18.90;101211.00;;;;2071247;28;20221;-77
2023/03/03 03:20:24;;;;;;;21.10;18.83;;;;;18.90;101208.00;;;;2071110;28;20217;-77
2023/03/03 03:21:25;;;;;;;22.30;18.60;;;;;18.90;101212.00;;;;2070462;28;20347;-76
2023/03/03 03:22:25;;;;;;;21.47;17.87;;;;;18.90;101210.00;;;;2070136;28;20214;-77
2023/03/03 03:23:25;;;;;;;21.50;17.53;;;;;18.90;101213.00;;;;2070484;28;20217;-77
2023/03/03 03:24:26;;;;;;;20.57;18.23;;;;;18.90;101213.00;;;;2071250;28;20704;-77
2023/03/03 03:25:26;;;;;;;23.93;18.67;;;;;18.90;101219.00;;;;2071373;28;20271;-77
2023/03/03 03:26:26;;;;;;;22.70;18.40;;;;;18.90;101218.00;;;;2071138;28;20218;-77
2023/03/03 03:27:27;;;;;;;20.23;17.83;;;;;18.90;101229.00;;;;2071077;28;20311;-77
2023/03/03 03:28:27;;;;;;;22.00;17.60;;;;;18.90;101229.00;;;;2070855;28;20225;-77
2023/03/03 03:29:27;;;;;;;20.73;18.50;;;;;18.90;101232.00;;;;2071093;28;20232;-77
2023/03/03 03:30:28;;;;;;;25.00;18.70;;;;;18.90;101216.00;;;;2070311;28;20303;-77
2023/03/03 03:31:28;;;;;;;19.97;17.07;;;;;18.90;101218.00;;;;2070495;28;20225;-77
2023/03/03 03:32:28;;;;;;;21.37;17.70;;;;;18.90;101231.00;;;;2071197;28;20225;-77
2023/03/03 03:33:29;;;;;;;23.07;18.20;;;;;18.90;101228.00;;;;2070661;28;20578;-74
2023/03/03 03:34:30;;;;;;;21.37;17.70;;;;;18.90;101228.00;;;;2070345;28;20217;-75
2023/03/03 03:35:32;;;;;;;20.03;16.70;;;;;18.90;101227.00;;;;2070094;28;20213;-76
2023/03/03 03:36:32;;;;;;;21.63;18.00;;;;;18.90;101231.00;;;;2069768;28;20582;-76
2023/03/03 03:37:32;;;;;;;21.53;17.97;;;;;18.90;101220.00;;;;2069250;28;20213;-76
2023/03/03 03:38:33;;;;;;;20.67;17.67;;;;;18.90;101221.00;;;;2070015;28;20223;-76
2023/03/03 03:39:33;;;;;;;20.60;17.07;;;;;18.90;101233.00;;;;2070540;28;20213;-77
2023/03/03 03:40:33;;;;;;;21.07;18.20;;;;;18.90;101228.00;;;;2070463;28;20206;-77
2023/03/03 03:41:34;;;;;;;19.67;17.10;;;;;18.90;101218.00;;;;2070948;28;20221;-77
2023/03/03 03:42:34;;;;;;;21.23;16.70;;;;;18.90;101220.00;;;;2070110;28;20608;-77
2023/03/03 03:43:34;;;;;;;19.67;16.50;;;;;18.90;101223.00;;;;2070146;28;20657;-77
2023/03/03 03:44:35;;;;;;;22.27;17.50;;;;;18.90;101223.00;;;;2062674;28;20258;-77
2023/03/03 03:45:35;;;;;;;22.73;17.57;;;;;18.90;101221.00;;;;2062693;28;20292;-77
2023/03/03 03:46:35;;;;;;;18.83;16.30;;;;;18.80;101221.00;;;;2062373;28;20249;-76
2023/03/03 03:47:36;;;;;;;21.10;17.90;;;;;18.90;101211.00;;;;2062394;28;20217;-77
2023/03/03 03:48:36;;;;;;;20.47;16.27;;;;;18.80;101209.00;;;;2062465;28;20229;-76
2023/03/03 03:49:36;;;;;;;19.63;16.47;;;;;18.80;101223.00;;;;2062435;28;20227;-76
2023/03/03 03:50:37;;;;;;;22.50;17.00;;;;;18.80;101224.00;;;;2062572;28;20312;-77
2023/03/03 03:51:40;;;;;;;19.10;16.57;;;;;18.80;101215.00;;;;2061595;28;20689;-77
2023/03/03 03:52:42;;;;;;;21.27;17.42;;;;;18.90;101214.00;;;;2062973;28;20206;-76
2023/03/03 03:53:42;;;;;;;20.95;16.90;;;;;18.90;101234.00;;;;2063032;28;20812;-77
2023/03/03 03:54:43;;;;;;;20.10;16.80;;;;;18.90;101231.00;;;;2062611;28;20217;-76
2023/03/03 03:55:44;;;;;;;18.77;16.30;;;;;18.80;101223.00;;;;2062753;28;20206;-77
2023/03/03 03:56:44;;;;;;;19.70;16.10;;;;;18.80;101232.00;;;;2060446;28;20313;-77
2023/03/03 03:57:44;;;;;;;20.77;16.63;;;;;18.90;101234.00;;;;2062209;28;20447;-77
2023/03/03 03:58:45;;;;;;;20.97;17.07;;;;;18.90;101239.00;;;;2062826;28;20218;-77
2023/03/03 03:59:45;;;;;;;20.40;16.60;;;;;18.80;101235.00;;;;2062917;28;20229;-77
2023/03/03 04:00:45;;;;;;;20.47;16.10;;;;;18.90;101234.00;;;;2062589;28;20221;-77
2023/03/03 04:01:47;;;;;;;20.50;16.40;;;;;18.80;101235.00;;;;2062958;28;20215;-77
2023/03/03 04:02:47;;;;;;;20.65;16.40;;;;;18.80;101225.00;;;;2062966;28;20223;-77
2023/03/03 04:03:48;;;;;;;20.93;17.30;;;;;18.80;101239.00;;;;2062984;28;20222;-77
2023/03/03 04:04:48;;;;;;;18.67;15.50;;;;;18.80;101236.00;;;;2063044;28;20682;-77
2023/03/03 04:05:51;;;;;;;18.80;15.57;;;;;18.90;101255.00;;;;2062852;28;20225;-77
2023/03/03 04:06:51;;;;;;;18.52;14.95;;;;;18.80;101234.00;;;;2062285;28;20673;-77
2023/03/03 04:07:52;;;;;;;21.03;16.03;;;;;18.80;101242.00;;;;2062406;28;20226;-77
2023/03/03 04:08:52;;;;;;;19.70;15.60;;;;;18.80;101238.00;;;;2062827;28;20219;-77
2023/03/03 04:09:52;;;;;;;16.50;14.17;;;;;18.80;101241.00;;;;2053943;28;20254;-77
2023/03/03 04:10:53;;;;;;;19.13;15.80;;;;;18.80;101238.00;;;;2053830;28;20219;-77
2023/03/03 04:11:53;;;;;;;19.40;16.13;;;;;18.80;101251.00;;;;2062615;28;20211;-77
2023/03/03 04:12:54;;;;;;;19.30;15.60;;;;;18.80;101236.00;;;;2062910;28;20215;-77
2023/03/03 04:13:54;;;;;;;21.23;16.73;;;;;18.80;101243.00;;;;2062903;28;20238;-77
2023/03/03 04:14:54;;;;;;;18.50;15.83;;;;;18.80;101237.00;;;;2062717;28;20217;-76
2023/03/03 04:15:55;;;;;;;19.43;15.87;;;;;18.80;101243.00;;;;2063039;28;20234;-78
2023/03/03 04:16:55;;;;;;;17.90;15.53;;;;;18.80;101249.00;;;;2062774;28;20233;-77
2023/03/03 04:17:55;;;;;;;18.57;15.50;;;;;18.80;101243.00;;;;2062920;28;20230;-76
2023/03/03 04:18:56;;;;;;;18.47;15.63;;;;;18.80;101243.00;;;;2062888;28;20227;-77
2023/03/03 04:19:56;;;;;;;19.13;15.83;;;;;18.80;101242.00;;;;2062743;28;20277;-77
2023/03/03 04:20:56;;;;;;;18.73;15.60;;;;;18.80;101251.00;;;;2062777;28;20230;-77
2023/03/03 04:21:57;;;;;;;18.60;15.93;;;;;18.80;101244.00;;;;2062561;28;20226;-76
2023/03/03 04:22:57;;;;;;;18.97;15.67;;;;;18.80;101237.00;;;;2062995;28;20222;-76
2023/03/03 04:23:57;;;;;;;18.37;15.60;;;;;18.80;101240.00;;;;2063708;28;20546;-77
2023/03/03 04:24:58;;;;;;;18.47;15.47;;;;;18.80;101231.00;;;;2064684;28;20221;-77
2023/03/03 04:25:58;;;;;;;17.90;15.67;;;;;18.80;101241.00;;;;2064490;28;20219;-77
2023/03/03 04:26:59;;;;;;;18.20;15.07;;;;;18.70;101237.00;;;;2064209;28;20219;-77
2023/03/03 04:28:00;;;;;;;19.33;15.65;;;;;18.70;101242.00;;;;2063867;28;20218;-76
2023/03/03 04:29:00;;;;;;;19.43;15.73;;;;;18.70;101245.00;;;;2064572;28;20218;-77
2023/03/03 04:30:01;;;;;;;19.33;15.53;;;;;18.80;101249.00;;;;2064051;28;20218;-77
2023/03/03 04:31:02;;;;;;;17.70;14.00;;;;;18.80;101238.00;;;;2063783;28;20685;-77
2023/03/03 04:32:02;;;;;;;18.07;15.50;;;;;18.70;101239.00;;;;2063510;28;20221;-76
2023/03/03 04:33:02;;;;;;;17.87;14.63;;;;;18.80;101248.00;;;;2064186;28;20496;-76
2023/03/03 04:34:02;;;;;;;20.07;16.00;;;;;18.70;101252.00;;;;2064475;28;20219;-77
2023/03/03 04:35:03;;;;;;;17.27;14.97;;;;;18.70;101242.00;;;;2064453;28;20215;-76
2023/03/03 04:36:04;;;;;;;18.80;15.00;;;;;18.70;101244.00;;;;2064349;28;20244;-76
2023/03/03 04:37:04;;;;;;;16.77;14.50;;;;;18.70;101246.00;;;;2064289;28;20686;-77
2023/03/03 04:38:04;;;;;;;16.90;14.63;;;;;18.70;101247.00;;;;2064147;28;20218;-76
2023/03/03 04:39:05;;;;;;;18.00;14.63;;;;;18.70;101250.00;;;;2064312;28;20237;-77
2023/03/03 04:40:06;;;;;;;16.90;14.60;;;;;18.70;101246.00;;;;2064139;28;20290;-76
2023/03/03 04:41:06;;;;;;;16.65;14.02;;;;;18.80;101249.00;;;;2064215;28;20225;-77
2023/03/03 04:42:06;;;;;;;15.83;13.93;;;;;18.70;101239.00;;;;2063486;28;20643;-77
2023/03/03 04:43:07;;;;;;;17.57;14.03;;;;;18.70;101237.00;;;;2063708;28;20222;-77
2023/03/03 04:44:07;;;;;;;16.33;13.63;;;;;18.70;101243.00;;;;2067472;28;20217;-77
2023/03/03 04:45:08;;;;;;;18.00;15.43;;;;;18.70;101246.00;;;;2071418;28;20722;-77
2023/03/03 04:46:08;;;;;;;16.13;13.47;;;;;18.70;101204.00;;;;2072462;28;20218;-77
2023/03/03 04:47:08;;;;;;;18.20;14.90;;;;;18.70;101245.00;;;;2063508;28;20752;-77
2023/03/03 04:48:09;;;;;;;17.30;14.77;;;;;18.70;101245.00;;;;2063357;28;20218;-77
2023/03/03 04:49:09;;;;;;;17.50;14.00;;;;;18.70;101248.00;;;;2072304;28;20214;-77
2023/03/03 04:50:10;;;;;;;18.63;15.23;;;;;18.70;101244.00;;;;2072159;28;20249;-77
2023/03/03 04:51:10;;;;;;;17.47;14.43;;;;;18.70;101241.00;;;;2072371;28;20210;-77
2023/03/03 04:52:10;;;;;;;16.80;13.80;;;;;18.70;101245.00;;;;2072077;28;20234;-76
2023/03/03 04:53:11;;;;;;;18.17;14.77;;;;;18.70;101249.00;;;;2071708;28;20537;-77
2023/03/03 04:54:11;;;;;;;17.80;14.67;;;;;18.70;101251.00;;;;2071459;28;20589;-74
2023/03/03 04:55:12;;;;;;;19.90;15.23;;;;;18.70;101245.00;;;;2072215;28;20217;-75
2023/03/03 04:56:13;;;;;;;18.13;15.65;;;;;18.70;101246.00;;;;2072168;28;20321;-77
2023/03/03 04:57:13;;;;;;;17.90;14.93;;;;;18.70;101250.00;;;;2072041;28;20284;-77
2023/03/03 04:58:14;;;;;;;17.90;14.43;;;;;18.70;101257.00;;;;2072063;28;20257;-77
2023/03/03 04:59:15;;;;;;;16.10;13.15;;;;;18.70;101253.00;;;;2072256;28;20304;-78